createdAt,value
2023-02-27T00:00:22.659Z,4.33
2023-02-27T00:05:26.374Z,4.36
2023-02-27T00:10:29.376Z,4.22
2023-02-27T00:15:32.925Z,4.33
2023-02-27T00:20:38.410Z,4.39
2023-02-27T00:25:42.033Z,4.32
2023-02-27T00:30:45.075Z,4.25
2023-02-27T00:36:02.082Z,4.31
2023-02-27T00:41:05.312Z,4.29
2023-02-27T00:46:08.422Z,4.39
2023-02-27T00:51:11.460Z,4.19
2023-02-27T00:56:14.527Z,4.25
2023-02-27T01:01:17.667Z,4.33
2023-02-27T01:06:20.898Z,4.28
2023-02-27T01:11:24.419Z,4.26
2023-02-27T01:16:28.334Z,4.42
2023-02-27T01:21:31.424Z,4.25
2023-02-27T01:26:34.551Z,4.44
2023-02-27T01:31:37.628Z,4.60
2023-02-27T01:36:40.803Z,4.52
2023-02-27T01:41:44.103Z,4.43
2023-02-27T01:46:47.237Z,4.66
2023-02-27T01:51:55.370Z,4.52
2023-02-27T01:56:58.691Z,4.61
2023-02-27T02:02:05.546Z,4.72
2023-02-27T02:07:18.279Z,4.68
2023-02-27T02:12:25.484Z,4.82
2023-02-27T02:18:00.309Z,4.82
2023-02-27T02:23:21.132Z,4.84
2023-02-27T02:28:42.119Z,4.73
2023-02-27T02:34:02.273Z,4.77
2023-02-27T02:39:39.788Z,4.81
2023-02-27T02:45:19.792Z,4.77
2023-02-27T02:50:33.935Z,4.72
2023-02-27T02:55:44.895Z,4.81
2023-02-27T03:01:18.206Z,4.71
2023-02-27T03:06:27.951Z,4.54
2023-02-27T03:11:38.479Z,4.57
2023-02-27T03:16:46.679Z,4.69
2023-02-27T03:21:56.252Z,4.97
2023-02-27T03:27:03.212Z,5.04
2023-02-27T03:32:15.886Z,5.06
2023-02-27T03:38:13.506Z,5.08
2023-02-27T03:43:37.549Z,5.20
2023-02-27T03:48:44.907Z,5.13
2023-02-27T03:54:10.033Z,5.27
2023-02-27T03:59:14.734Z,5.38
2023-02-27T04:04:23.102Z,5.39
2023-02-27T04:10:28.573Z,5.48
2023-02-27T04:16:08.889Z,5.40
2023-02-27T04:21:15.776Z,5.51
2023-02-27T04:26:32.298Z,5.67
2023-02-27T04:32:13.127Z,5.74
2023-02-27T04:37:25.218Z,6.11
2023-02-27T04:42:33.554Z,6.07
2023-02-27T04:47:44.941Z,5.81
2023-02-27T04:52:58.538Z,6.36
2023-02-27T04:58:19.044Z,6.16
2023-02-27T05:03:27.587Z,6.15
2023-02-27T05:08:36.366Z,6.30
2023-02-27T05:13:51.363Z,6.26
2023-02-27T05:18:56.016Z,6.51
2023-02-27T05:24:10.258Z,6.56
2023-02-27T05:29:34.772Z,6.69
2023-02-27T05:34:49.235Z,6.63
2023-02-27T05:39:53.588Z,6.89
2023-02-27T05:45:20.483Z,7.09
2023-02-27T05:50:27.072Z,7.67
2023-02-27T05:55:35.858Z,7.83
2023-02-27T06:00:50.429Z,8.07
2023-02-27T06:05:55.969Z,8.61
2023-02-27T06:10:59.081Z,8.56
2023-02-27T06:16:02.402Z,8.72
2023-02-27T06:21:05.723Z,8.67
2023-02-27T06:26:14.111Z,8.82
2023-02-27T06:31:17.198Z,9.03
2023-02-27T06:36:20.266Z,9.43
2023-02-27T06:41:23.364Z,9.51
2023-02-27T06:46:26.918Z,9.94
2023-02-27T06:51:30.161Z,10.23
2023-02-27T06:56:33.236Z,10.24
2023-02-27T07:01:36.301Z,10.41
2023-02-27T07:07:33.157Z,10.69
2023-02-27T07:12:03.261Z,10.91
2023-02-27T07:17:06.358Z,11.19
2023-02-27T07:22:10.046Z,11.25
2023-02-27T07:27:13.276Z,11.76
2023-02-27T07:32:16.502Z,11.87
2023-02-27T07:37:19.564Z,12.01
2023-02-27T07:42:22.661Z,12.44
2023-02-27T07:47:25.781Z,12.26
2023-02-27T07:57:46.148Z,12.42
2023-02-27T08:02:49.461Z,12.60
2023-02-27T08:07:52.545Z,12.37
2023-02-27T08:12:55.723Z,12.08
2023-02-27T08:17:58.911Z,12.03
2023-02-27T08:23:01.952Z,11.76
2023-02-27T08:28:06.231Z,12.08
2023-02-27T08:33:09.220Z,11.99
2023-02-27T08:38:12.286Z,11.70
2023-02-27T08:43:15.340Z,11.68
2023-02-27T08:48:18.898Z,11.93
2023-02-27T08:53:21.933Z,11.80
2023-02-27T08:58:24.981Z,11.84
2023-02-27T09:03:29.052Z,12.22
2023-02-27T09:08:32.102Z,12.40
2023-02-27T09:13:35.216Z,12.21
2023-02-27T09:18:38.349Z,12.13
2023-02-27T09:23:41.406Z,12.10
2023-02-27T09:28:44.689Z,12.43
2023-02-27T09:33:47.752Z,12.31
2023-02-27T09:38:50.939Z,12.26
2023-02-27T09:43:54.090Z,12.17
2023-02-27T09:49:01.677Z,12.24
2023-02-27T09:54:05.496Z,12.50
2023-02-27T09:59:19.966Z,12.75
2023-02-27T10:04:33.039Z,12.68
2023-02-27T10:10:14.736Z,12.83
2023-02-27T10:15:29.712Z,12.98
2023-02-27T10:20:43.732Z,13.01
2023-02-27T10:25:52.304Z,13.02
2023-02-27T10:30:59.138Z,12.98
2023-02-27T10:36:03.691Z,12.94
2023-02-27T10:41:10.899Z,12.91
2023-02-27T10:46:38.934Z,12.98
2023-02-27T10:51:44.577Z,12.74
2023-02-27T10:57:00.240Z,12.65
2023-02-27T11:02:21.763Z,13.18
2023-02-27T11:07:38.401Z,12.96
2023-02-27T11:12:44.186Z,13.27
2023-02-27T11:17:47.721Z,13.05
2023-02-27T11:23:08.157Z,13.02
2023-02-27T11:28:21.693Z,13.14
2023-02-27T11:33:26.047Z,13.12
2023-02-27T11:38:31.602Z,13.20
2023-02-27T11:43:47.736Z,13.23
2023-02-27T11:48:59.967Z,13.09
2023-02-27T11:54:43.529Z,13.12
2023-02-27T12:00:21.658Z,13.16
2023-02-27T12:05:39.371Z,13.29
2023-02-27T12:10:55.636Z,13.11
2023-02-27T12:16:16.632Z,13.11
2023-02-27T12:21:27.814Z,12.89
2023-02-27T12:26:37.531Z,12.87
2023-02-27T12:31:47.842Z,12.86
2023-02-27T12:36:52.909Z,12.76
2023-02-27T12:42:20.598Z,12.57
2023-02-27T12:47:51.976Z,12.63
2023-02-27T12:53:16.455Z,12.74
2023-02-27T12:58:31.436Z,12.70
2023-02-27T13:03:55.933Z,12.54
2023-02-27T13:09:17.337Z,12.61
2023-02-27T13:14:46.801Z,12.52
2023-02-27T13:20:11.824Z,12.37
2023-02-27T13:25:16.783Z,12.11
2023-02-27T13:30:35.987Z,12.13
2023-02-27T13:35:48.371Z,12.09
2023-02-27T13:40:51.601Z,11.93
2023-02-27T13:45:57.468Z,11.91
2023-02-27T13:51:01.746Z,11.67
2023-02-27T13:56:22.467Z,11.63
2023-02-27T14:01:28.847Z,11.37
2023-02-27T14:06:32.737Z,11.35
2023-02-27T14:11:40.248Z,11.31
2023-02-27T14:16:48.563Z,11.26
2023-02-27T14:21:51.506Z,11.22
2023-02-27T14:26:55.568Z,11.14
2023-02-27T14:32:07.177Z,11.02
2023-02-27T14:37:17.502Z,10.93
2023-02-27T14:42:52.080Z,10.92
2023-02-27T14:47:55.597Z,10.91
2023-02-27T14:52:58.915Z,10.86
2023-02-27T14:58:07.757Z,10.73
2023-02-27T15:03:35.643Z,10.71
2023-02-27T15:08:42.272Z,10.62
2023-02-27T15:13:47.017Z,10.38
2023-02-27T15:18:52.780Z,10.47
2023-02-27T15:23:56.846Z,10.58
2023-02-27T15:29:00.736Z,10.59
2023-02-27T15:34:04.383Z,10.43
2023-02-27T15:39:17.041Z,10.28
2023-02-27T15:44:47.063Z,10.47
2023-02-27T15:49:55.246Z,10.19
2023-02-27T15:55:14.257Z,10.21
2023-02-27T16:00:18.679Z,10.06
2023-02-27T16:05:27.137Z,10.08
2023-02-27T16:10:40.897Z,9.85
2023-02-27T16:15:44.914Z,9.82
2023-02-27T16:20:56.024Z,9.74
2023-02-27T16:26:21.178Z,9.78
2023-02-27T16:31:33.049Z,9.71
2023-02-27T16:36:36.123Z,9.67
2023-02-27T16:41:39.311Z,9.55
2023-02-27T16:46:42.298Z,9.53
2023-02-27T16:51:45.394Z,9.52
2023-02-27T16:56:50.076Z,9.31
2023-02-27T17:01:53.608Z,9.33
2023-02-27T17:06:58.346Z,9.44
2023-02-27T17:12:01.406Z,9.49
2023-02-27T17:17:05.676Z,9.35
2023-02-27T17:22:08.722Z,9.52
2023-02-27T17:27:11.844Z,9.51
2023-02-27T17:32:14.882Z,9.39
2023-02-27T17:37:17.916Z,9.36
2023-02-27T17:42:21.026Z,9.28
2023-02-27T17:47:24.304Z,9.09
2023-02-27T17:52:27.885Z,9.18
2023-02-27T17:57:30.950Z,9.05
2023-02-27T18:02:34.019Z,8.99
2023-02-27T18:07:37.192Z,8.83
2023-02-27T18:12:40.577Z,8.80
2023-02-27T18:17:44.476Z,8.83
2023-02-27T18:22:47.546Z,8.74
2023-02-27T18:27:50.719Z,8.81
2023-02-27T18:32:56.708Z,8.85
2023-02-27T18:37:59.908Z,8.91
2023-02-27T18:43:03.051Z,8.89
2023-02-27T18:48:06.586Z,8.90
2023-02-27T18:53:09.637Z,8.72
2023-02-27T18:58:12.686Z,8.80
2023-02-27T19:03:15.787Z,8.64
2023-02-27T19:08:18.924Z,8.61
2023-02-27T19:13:22.310Z,8.74
2023-02-27T19:18:25.372Z,8.80
2023-02-27T19:23:28.417Z,8.72
2023-02-27T19:28:31.514Z,8.80
2023-02-27T19:33:34.972Z,8.71
2023-02-27T19:38:38.298Z,8.69
2023-02-27T19:43:41.604Z,8.74
2023-02-27T19:48:45.585Z,8.69
2023-02-27T19:53:49.132Z,8.59
2023-02-27T19:58:53.126Z,8.66
2023-02-27T20:03:57.677Z,8.68
2023-02-27T20:09:01.223Z,8.59
2023-02-27T20:14:05.232Z,8.82
2023-02-27T20:19:10.504Z,8.82
2023-02-27T20:24:14.880Z,8.84
2023-02-27T20:29:20.795Z,8.72
2023-02-27T20:34:26.698Z,8.80
2023-02-27T20:39:29.970Z,8.90
2023-02-27T20:44:32.945Z,8.85
2023-02-27T20:49:36.951Z,8.81
2023-02-27T20:54:40.101Z,8.72
2023-02-27T20:59:43.102Z,8.79
2023-02-27T21:04:47.660Z,8.72
2023-02-27T21:09:51.285Z,8.40
2023-02-27T21:14:55.697Z,8.12
2023-02-27T21:19:58.734Z,7.65
2023-02-27T21:25:01.860Z,7.83
2023-02-27T21:30:07.211Z,8.02
2023-02-27T21:35:10.620Z,7.98
2023-02-27T21:40:14.142Z,8.07
2023-02-27T21:45:17.302Z,8.17
2023-02-27T21:50:23.269Z,8.39
2023-02-27T21:55:26.372Z,8.25
2023-02-27T22:00:31.111Z,8.05
2023-02-27T22:05:34.081Z,7.95
2023-02-27T22:10:46.039Z,8.20
2023-02-27T22:15:49.096Z,8.23
2023-02-27T22:20:52.249Z,8.04
2023-02-27T22:26:03.468Z,7.71
2023-02-27T22:31:13.224Z,7.86
2023-02-27T22:36:20.491Z,7.93
2023-02-27T22:41:32.677Z,7.87
2023-02-27T22:46:42.336Z,7.75
2023-02-27T22:51:52.314Z,7.68
2023-02-27T22:56:57.932Z,7.63
2023-02-27T23:02:01.438Z,7.78
2023-02-27T23:07:04.580Z,7.75
2023-02-27T23:12:07.927Z,7.78
2023-02-27T23:17:10.871Z,7.91
2023-02-27T23:22:13.943Z,7.43
2023-02-27T23:27:25.850Z,7.37
2023-02-27T23:32:29.693Z,7.01
2023-02-27T23:37:32.717Z,6.84
2023-02-27T23:42:35.723Z,6.78
2023-02-27T23:47:44.932Z,6.72
2023-02-27T23:52:49.574Z,6.66
2023-02-27T23:57:54.040Z,6.42
